createdAt,value
2018-01-18T00:01:00.435Z,17.90
2018-01-18T00:03:29.383Z,17.90
2018-01-18T00:05:57.595Z,17.90
2018-01-18T00:08:25.797Z,17.90
2018-01-18T00:10:53.991Z,17.90
2018-01-18T00:13:22.226Z,18.00
2018-01-18T00:15:51.198Z,18.00
2018-01-18T00:18:19.420Z,18.00
2018-01-18T00:20:47.639Z,18.00
2018-01-18T00:23:15.828Z,18.00
2018-01-18T00:25:44.804Z,18.00
2018-01-18T00:28:13.002Z,18.00
2018-01-18T00:30:41.966Z,18.00
2018-01-18T00:33:10.165Z,18.00
2018-01-18T00:35:39.163Z,18.00
2018-01-18T00:38:08.114Z,17.90
2018-01-18T00:40:36.368Z,17.90
2018-01-18T00:43:04.573Z,17.90
2018-01-18T00:45:32.721Z,17.90
2018-01-18T00:48:00.944Z,17.90
2018-01-18T00:50:29.927Z,17.90
2018-01-18T00:52:58.130Z,17.90
2018-01-18T00:55:26.359Z,17.90
2018-01-18T00:57:54.546Z,17.90
2018-01-18T01:00:22.828Z,17.90
2018-01-18T01:02:51.023Z,17.90
2018-01-18T01:05:19.216Z,17.90
2018-01-18T01:07:47.390Z,17.90
2018-01-18T01:10:15.563Z,17.90
2018-01-18T01:12:43.741Z,18.00
2018-01-18T01:15:12.024Z,17.90
2018-01-18T01:17:40.210Z,17.90
2018-01-18T01:20:08.502Z,17.90
2018-01-18T01:22:36.712Z,17.90
2018-01-18T01:25:04.903Z,17.90
2018-01-18T01:27:34.661Z,17.90
2018-01-18T01:30:02.873Z,17.90
2018-01-18T01:32:31.899Z,17.90
2018-01-18T01:35:00.136Z,17.90
2018-01-18T01:37:28.326Z,17.90
2018-01-18T01:39:56.548Z,17.90
2018-01-18T01:42:25.571Z,17.90
2018-01-18T01:44:54.515Z,17.90
2018-01-18T01:47:22.706Z,17.90
2018-01-18T01:49:50.978Z,17.90
2018-01-18T01:52:19.191Z,17.90
2018-01-18T01:54:47.439Z,17.90
2018-01-18T01:57:15.673Z,17.90
2018-01-18T01:59:43.870Z,17.90
2018-01-18T02:02:12.082Z,17.90
2018-01-18T02:04:41.074Z,17.90
2018-01-18T02:07:10.066Z,17.90
2018-01-18T02:09:38.264Z,17.90
2018-01-18T02:12:06.471Z,17.90
2018-01-18T02:14:34.723Z,17.90
2018-01-18T02:17:02.947Z,17.90
2018-01-18T02:19:31.154Z,17.90
2018-01-18T02:21:59.499Z,17.90
2018-01-18T02:24:28.458Z,17.90
2018-01-18T02:26:56.685Z,17.90
2018-01-18T02:29:24.851Z,17.90
2018-01-18T02:31:53.939Z,17.90
2018-01-18T02:34:22.900Z,17.90
2018-01-18T02:36:51.109Z,17.90
2018-01-18T02:39:20.085Z,17.90
2018-01-18T02:41:48.278Z,17.90
2018-01-18T02:44:16.468Z,17.90
2018-01-18T02:46:44.685Z,17.90
2018-01-18T02:49:12.857Z,17.90
2018-01-18T02:51:41.030Z,17.90
2018-01-18T02:54:09.556Z,17.90
2018-01-18T02:56:37.773Z,17.80
2018-01-18T02:59:06.074Z,17.90
2018-01-18T03:01:34.269Z,17.80
2018-01-18T03:04:03.232Z,17.80
2018-01-18T03:06:31.524Z,17.80
2018-01-18T03:09:00.472Z,17.90
2018-01-18T03:11:28.654Z,17.80
2018-01-18T03:13:56.928Z,17.80
2018-01-18T03:16:25.116Z,17.80
2018-01-18T03:18:53.302Z,17.80
2018-01-18T03:21:21.605Z,17.80
2018-01-18T03:23:50.437Z,17.80
2018-01-18T03:26:18.630Z,17.80
2018-01-18T03:28:46.828Z,17.80
2018-01-18T03:31:15.788Z,17.80
2018-01-18T03:33:43.969Z,17.70
2018-01-18T03:36:12.291Z,17.70
2018-01-18T03:38:40.485Z,17.70
2018-01-18T03:41:08.836Z,17.70
2018-01-18T03:43:37.077Z,17.70
2018-01-18T03:46:05.312Z,17.70
2018-01-18T03:48:33.494Z,17.70
2018-01-18T03:51:01.750Z,17.70
2018-01-18T03:53:29.951Z,17.70
2018-01-18T03:55:58.195Z,17.70
2018-01-18T03:58:26.395Z,17.70
2018-01-18T04:00:54.598Z,17.70
2018-01-18T04:03:22.786Z,17.70
2018-01-18T04:05:51.751Z,17.70
2018-01-18T04:08:20.064Z,17.70
2018-01-18T04:10:48.272Z,17.70
2018-01-18T04:13:16.479Z,17.70
2018-01-18T04:15:44.697Z,17.70
2018-01-18T04:18:12.992Z,17.70
2018-01-18T04:20:41.898Z,17.70
2018-01-18T04:23:10.146Z,17.70
2018-01-18T04:25:38.522Z,17.70
2018-01-18T04:28:06.727Z,17.70
2018-01-18T04:30:35.005Z,17.70
2018-01-18T04:33:03.231Z,17.70
2018-01-18T04:35:31.470Z,17.70
2018-01-18T04:37:59.682Z,17.70
2018-01-18T04:40:27.948Z,17.70
2018-01-18T04:42:56.882Z,17.70
2018-01-18T04:45:25.070Z,17.70
2018-01-18T04:47:53.274Z,17.70
2018-01-18T04:50:22.266Z,17.70
2018-01-18T04:52:51.230Z,17.70
2018-01-18T04:55:19.404Z,17.70
2018-01-18T04:57:47.599Z,17.70
2018-01-18T05:00:15.800Z,17.80
2018-01-18T05:02:44.147Z,17.80
2018-01-18T05:05:12.369Z,17.80
2018-01-18T05:07:40.563Z,17.90
2018-01-18T05:10:08.810Z,18.00
2018-01-18T05:12:37.085Z,18.00
2018-01-18T05:15:05.272Z,18.10
2018-01-18T05:17:33.473Z,18.10
2018-01-18T05:20:01.656Z,18.10
2018-01-18T05:22:30.258Z,18.20
2018-01-18T05:24:58.476Z,18.20
2018-01-18T05:27:26.715Z,18.20
2018-01-18T05:29:55.800Z,18.30
2018-01-18T05:32:24.750Z,18.30
2018-01-18T05:34:52.984Z,18.30
2018-01-18T05:37:21.163Z,18.30
2018-01-18T05:39:49.330Z,18.40
2018-01-18T05:42:17.639Z,18.40
2018-01-18T05:44:45.813Z,18.40
2018-01-18T05:47:14.077Z,18.40
2018-01-18T05:49:42.319Z,18.40
2018-01-18T05:52:10.649Z,18.40
2018-01-18T05:54:38.815Z,18.40
2018-01-18T05:57:06.963Z,18.40
2018-01-18T05:59:35.141Z,18.40
2018-01-18T06:02:03.522Z,18.40
2018-01-18T06:04:31.727Z,18.40
2018-01-18T06:09:29.538Z,18.40
2018-01-18T06:11:58.780Z,18.40
2018-01-18T06:14:26.997Z,18.40
2018-01-18T06:16:55.957Z,18.40
2018-01-18T06:19:24.204Z,18.40
2018-01-18T06:21:52.491Z,18.50
2018-01-18T06:24:20.751Z,18.50
2018-01-18T06:26:48.920Z,18.50
2018-01-18T06:29:20.150Z,18.50
2018-01-18T06:31:48.670Z,18.50
2018-01-18T06:34:16.906Z,18.60
2018-01-18T06:36:45.879Z,18.60
2018-01-18T06:39:14.260Z,18.60
2018-01-18T06:41:42.495Z,18.60
2018-01-18T06:44:10.850Z,18.60
2018-01-18T06:46:43.221Z,18.60
2018-01-18T06:49:11.542Z,18.60
2018-01-18T06:51:39.751Z,18.60
2018-01-18T06:54:08.740Z,18.60
2018-01-18T06:56:37.704Z,18.60
2018-01-18T06:59:05.920Z,18.60
2018-01-18T07:01:34.131Z,18.60
2018-01-18T07:04:02.395Z,18.60
2018-01-18T07:06:30.639Z,18.60
2018-01-18T07:08:58.968Z,18.60
2018-01-18T07:11:27.187Z,18.60
2018-01-18T07:13:55.452Z,18.60
2018-01-18T07:16:24.510Z,18.60
2018-01-18T07:18:52.962Z,18.60
2018-01-18T07:21:21.217Z,18.60
2018-01-18T07:23:49.394Z,18.60
2018-01-18T07:26:17.647Z,18.60
2018-01-18T07:28:46.623Z,18.60
2018-01-18T07:31:14.795Z,18.60
2018-01-18T07:33:42.978Z,18.60
2018-01-18T07:36:12.270Z,18.50
2018-01-18T07:38:40.453Z,18.60
2018-01-18T07:41:08.699Z,18.50
2018-01-18T07:43:37.788Z,18.50
2018-01-18T07:46:05.989Z,18.50
2018-01-18T07:48:34.198Z,18.60
2018-01-18T07:51:02.389Z,18.60
2018-01-18T07:53:30.575Z,18.60
2018-01-18T07:55:58.886Z,18.60
2018-01-18T07:58:27.890Z,18.60
2018-01-18T08:00:56.873Z,18.60
2018-01-18T08:03:31.433Z,18.60
2018-01-18T08:05:59.778Z,18.60
2018-01-18T08:08:28.757Z,18.60
2018-01-18T08:10:57.839Z,18.60
2018-01-18T08:13:26.124Z,18.60
2018-01-18T08:15:55.078Z,18.60
2018-01-18T08:18:23.266Z,18.60
2018-01-18T08:20:51.545Z,18.60
2018-01-18T08:23:19.815Z,18.70
2018-01-18T08:25:49.088Z,18.60
2018-01-18T08:28:17.332Z,18.60
2018-01-18T08:30:46.647Z,18.60
2018-01-18T08:33:14.932Z,18.60
2018-01-18T08:35:44.170Z,18.60
2018-01-18T08:38:12.428Z,18.60
2018-01-18T08:40:40.688Z,18.60
2018-01-18T08:43:25.219Z,18.60
2018-01-18T08:45:54.248Z,18.60
2018-01-18T08:48:24.111Z,18.60
2018-01-18T08:50:52.464Z,18.50
2018-01-18T08:53:20.704Z,18.60
2018-01-18T08:55:49.117Z,18.60
2018-01-18T08:58:17.369Z,18.60
2018-01-18T09:00:45.656Z,18.60
2018-01-18T09:03:14.021Z,18.70
2018-01-18T09:05:42.358Z,18.70
2018-01-18T09:08:11.330Z,18.70
2018-01-18T09:10:39.581Z,18.70
2018-01-18T09:13:07.861Z,18.70
2018-01-18T09:15:36.144Z,18.70
2018-01-18T09:18:04.396Z,18.70
2018-01-18T09:20:32.641Z,18.70
2018-01-18T09:23:01.110Z,18.70
2018-01-18T09:25:29.400Z,18.70
2018-01-18T09:27:57.635Z,18.70
2018-01-18T09:30:26.742Z,18.70
2018-01-18T09:32:55.807Z,18.70
2018-01-18T09:35:24.041Z,18.70
2018-01-18T09:37:52.221Z,18.70
2018-01-18T09:40:20.545Z,18.70
2018-01-18T09:42:49.744Z,18.70
2018-01-18T09:45:20.550Z,18.70
2018-01-18T09:47:49.734Z,18.70
2018-01-18T09:50:18.072Z,18.70
2018-01-18T09:52:46.292Z,18.70
2018-01-18T09:55:14.521Z,18.60
2018-01-18T09:57:42.722Z,18.60
2018-01-18T10:00:10.966Z,18.60
2018-01-18T10:02:39.943Z,18.70
2018-01-18T10:05:09.012Z,18.70
2018-01-18T10:07:37.207Z,18.70
2018-01-18T10:10:05.464Z,18.70
2018-01-18T10:12:33.689Z,18.70
2018-01-18T10:15:01.932Z,18.70
2018-01-18T10:17:30.954Z,18.70
2018-01-18T10:19:59.262Z,18.70
2018-01-18T10:22:27.584Z,18.70
2018-01-18T10:24:56.582Z,18.70
2018-01-18T10:27:25.546Z,18.70
2018-01-18T10:29:53.839Z,18.70
2018-01-18T10:32:22.043Z,18.70
2018-01-18T10:34:50.310Z,18.70
2018-01-18T10:37:18.485Z,18.70
2018-01-18T10:39:46.784Z,18.70
2018-01-18T10:42:15.023Z,18.80
2018-01-18T10:44:43.264Z,18.80
2018-01-18T10:47:11.488Z,18.80
2018-01-18T10:49:39.704Z,18.80
2018-01-18T10:52:07.986Z,18.80
2018-01-18T10:54:36.224Z,18.80
2018-01-18T10:57:04.466Z,18.80
2018-01-18T10:59:34.489Z,18.80
2018-01-18T11:02:02.869Z,18.80
2018-01-18T11:04:31.063Z,18.80
2018-01-18T11:06:59.306Z,18.80
2018-01-18T11:09:28.277Z,18.90
2018-01-18T11:11:56.449Z,18.90
2018-01-18T11:14:24.674Z,18.90
2018-01-18T11:16:52.884Z,18.90
2018-01-18T11:19:21.949Z,18.90
2018-01-18T11:21:50.151Z,18.90
2018-01-18T11:24:18.350Z,18.90
2018-01-18T11:26:46.549Z,18.90
2018-01-18T11:29:14.765Z,18.90
2018-01-18T11:31:42.969Z,18.90
2018-01-18T11:34:11.193Z,18.90
2018-01-18T11:36:39.421Z,18.90
2018-01-18T11:42:17.587Z,18.90
2018-01-18T11:44:45.779Z,18.90
2018-01-18T11:47:14.078Z,18.90
2018-01-18T11:49:42.299Z,19.00
2018-01-18T11:52:10.484Z,19.00
2018-01-18T11:54:38.709Z,19.00
2018-01-18T11:57:06.930Z,19.00
2018-01-18T11:59:35.136Z,19.00
2018-01-18T12:02:03.320Z,19.00
2018-01-18T12:04:31.524Z,19.00
2018-01-18T12:07:00.503Z,19.00
2018-01-18T12:09:29.508Z,19.00
2018-01-18T12:11:58.488Z,19.00
2018-01-18T12:14:27.386Z,19.00
2018-01-18T12:16:56.479Z,19.00
2018-01-18T12:19:25.426Z,19.10
2018-01-18T12:21:53.626Z,19.10
2018-01-18T12:24:21.863Z,19.10
2018-01-18T12:26:50.066Z,19.10
2018-01-18T12:29:18.300Z,19.10
2018-01-18T12:31:46.497Z,19.10
2018-01-18T12:34:14.710Z,19.20
2018-01-18T12:36:43.669Z,19.20
2018-01-18T12:39:11.867Z,19.20
2018-01-18T12:41:40.046Z,19.20
2018-01-18T12:44:09.040Z,19.20
2018-01-18T12:46:38.094Z,19.20
2018-01-18T12:49:06.432Z,19.20
2018-01-18T12:51:34.746Z,19.20
2018-01-18T12:54:03.014Z,19.20
2018-01-18T12:56:31.363Z,19.20
2018-01-18T12:58:59.689Z,19.20
2018-01-18T13:01:28.063Z,19.20
2018-01-18T13:03:56.379Z,19.10
2018-01-18T13:06:25.554Z,19.10
2018-01-18T13:08:53.847Z,19.10
2018-01-18T13:11:22.124Z,19.10
2018-01-18T13:13:51.168Z,19.20
2018-01-18T13:16:20.624Z,19.10
2018-01-18T13:18:50.437Z,19.10
2018-01-18T13:21:18.757Z,19.10
2018-01-18T13:23:47.063Z,19.10
2018-01-18T13:26:15.609Z,19.10
2018-01-18T13:28:44.233Z,19.10
2018-01-18T13:31:12.739Z,19.10
2018-01-18T13:33:41.201Z,19.10
2018-01-18T13:36:10.254Z,19.00
2018-01-18T13:38:39.401Z,19.00
2018-01-18T13:41:07.720Z,18.90
2018-01-18T13:43:36.061Z,19.00
2018-01-18T13:46:04.361Z,18.90
2018-01-18T13:48:32.544Z,18.90
2018-01-18T13:51:00.877Z,18.90
2018-01-18T14:46:38.726Z,18.50
2018-01-18T14:49:07.172Z,18.50
2018-01-18T14:51:36.038Z,18.50
2018-01-18T14:59:29.880Z,18.60
2018-01-18T15:01:58.015Z,18.60
2018-01-18T15:04:27.438Z,18.70
2018-01-18T15:06:55.627Z,18.70
2018-01-18T15:09:23.773Z,18.70
2018-01-18T15:11:52.004Z,18.70
2018-01-18T15:14:21.010Z,18.80
2018-01-18T15:19:35.643Z,18.80
2018-01-18T15:22:03.790Z,18.80
2018-01-18T15:24:31.996Z,18.80
2018-01-18T15:27:00.138Z,18.90
2018-01-18T15:29:28.248Z,18.90
2018-01-18T15:35:06.861Z,18.80
2018-01-18T15:37:35.039Z,18.80
2018-01-18T15:40:06.245Z,18.70
2018-01-18T15:42:34.514Z,18.70
2018-01-18T15:45:02.910Z,18.60
2018-01-18T15:50:30.370Z,18.50
2018-01-18T15:52:58.655Z,18.50
2018-01-18T15:55:27.013Z,18.50
2018-01-18T15:57:57.815Z,18.40
2018-01-18T16:00:26.003Z,18.50
2018-01-18T16:02:54.153Z,18.50
2018-01-18T16:05:23.331Z,18.50
2018-01-18T16:07:51.495Z,18.50
2018-01-18T16:10:19.654Z,18.60
2018-01-18T16:12:47.898Z,18.60
2018-01-18T16:15:16.286Z,18.60
2018-01-18T16:17:44.480Z,18.70
2018-01-18T16:20:12.838Z,18.70
2018-01-18T16:22:41.699Z,18.70
2018-01-18T16:25:09.883Z,18.60
2018-01-18T16:27:38.101Z,18.60
2018-01-18T16:30:06.309Z,18.60
2018-01-18T16:32:34.913Z,18.60
2018-01-18T16:35:03.829Z,18.70
2018-01-18T16:37:32.107Z,18.60
2018-01-18T16:40:01.270Z,18.60
2018-01-18T16:42:29.578Z,18.70
2018-01-18T16:44:57.854Z,18.60
2018-01-18T16:47:26.047Z,18.70
2018-01-18T16:49:54.303Z,18.70
2018-01-18T16:52:22.496Z,18.70
2018-01-18T16:54:50.696Z,18.70
2018-01-18T16:57:19.701Z,18.80
2018-01-18T16:59:48.705Z,18.80
2018-01-18T17:02:16.957Z,18.80
2018-01-18T17:04:45.239Z,18.80
2018-01-18T17:07:14.236Z,18.80
2018-01-18T17:09:43.181Z,18.90
2018-01-18T17:12:11.416Z,18.80
2018-01-18T17:14:39.715Z,18.90
2018-01-18T17:17:07.876Z,18.90
2018-01-18T17:19:36.094Z,18.90
2018-01-18T17:22:04.313Z,18.90
2018-01-18T17:24:33.292Z,18.90
2018-01-18T17:27:02.334Z,18.90
2018-01-18T17:29:30.496Z,18.80
2018-01-18T17:31:58.683Z,18.90
2018-01-18T17:34:26.854Z,18.90
2018-01-18T17:36:57.246Z,18.90
2018-01-18T17:39:25.473Z,18.90
2018-01-18T17:41:53.631Z,18.90
2018-01-18T17:44:21.806Z,18.90
2018-01-18T17:46:50.004Z,18.80
2018-01-18T17:49:18.293Z,18.80
2018-01-18T17:51:47.218Z,18.80
2018-01-18T17:54:15.370Z,18.80
2018-01-18T17:56:44.261Z,18.90
2018-01-18T17:59:12.487Z,18.80
2018-01-18T18:01:40.706Z,18.90
2018-01-18T18:04:08.991Z,18.90
2018-01-18T18:06:37.145Z,18.80
2018-01-18T18:09:06.098Z,18.90
2018-01-18T18:11:34.291Z,18.90
2018-01-18T18:14:02.495Z,18.90
2018-01-18T18:16:30.727Z,18.90
2018-01-18T18:18:58.902Z,18.90
2018-01-18T18:21:27.151Z,18.90
2018-01-18T18:24:01.576Z,18.90
2018-01-18T18:26:29.969Z,18.90
2018-01-18T18:29:00.745Z,18.90
2018-01-18T18:31:28.985Z,18.90
2018-01-18T18:33:57.197Z,18.90
2018-01-18T18:36:25.697Z,18.90
2018-01-18T18:38:54.066Z,18.90
2018-01-18T18:41:22.350Z,18.90
2018-01-18T18:43:50.578Z,18.90
2018-01-18T18:46:18.822Z,18.90
2018-01-18T18:48:46.993Z,18.90
2018-01-18T18:51:15.223Z,18.90
2018-01-18T18:53:44.224Z,18.90
2018-01-18T18:56:12.417Z,18.90
2018-01-18T18:58:42.426Z,18.80
2018-01-18T19:01:11.211Z,18.90
2018-01-18T19:03:39.499Z,18.80
2018-01-18T19:06:07.685Z,18.80
2018-01-18T19:08:35.999Z,18.80
2018-01-18T19:11:04.226Z,18.80
2018-01-18T19:13:32.404Z,18.80
2018-01-18T19:16:00.637Z,18.80
2018-01-18T19:18:29.706Z,18.80
2018-01-18T19:20:57.938Z,18.80
2018-01-18T19:23:26.368Z,18.80
2018-01-18T19:25:54.582Z,18.80
2018-01-18T19:28:22.920Z,18.80
2018-01-18T19:30:51.904Z,18.80
2018-01-18T19:33:20.321Z,18.80
2018-01-18T19:35:48.582Z,18.80
2018-01-18T19:38:17.051Z,18.80
2018-01-18T19:40:45.803Z,18.80
2018-01-18T20:15:09.722Z,18.80
2018-01-18T20:17:38.033Z,18.80
2018-01-18T20:20:06.269Z,18.70
2018-01-18T20:22:35.328Z,18.80
2018-01-18T20:25:04.627Z,18.80
2018-01-18T20:27:33.560Z,18.80
2018-01-18T20:30:01.884Z,18.80
2018-01-18T20:32:30.316Z,18.80
2018-01-18T20:34:58.964Z,18.80
2018-01-18T20:37:27.206Z,18.80
2018-01-18T20:39:55.522Z,18.80
2018-01-18T20:42:27.001Z,18.80
2018-01-18T20:44:55.592Z,18.80
2018-01-18T20:47:27.659Z,18.80
2018-01-18T20:49:56.277Z,18.80
2018-01-18T20:52:25.393Z,18.80
2018-01-18T20:54:55.302Z,18.80
2018-01-18T20:57:23.597Z,18.80
2018-01-18T20:59:57.327Z,18.70
2018-01-18T21:02:25.838Z,18.70
2018-01-18T21:04:54.152Z,18.70
2018-01-18T21:07:22.423Z,18.60
2018-01-18T21:09:51.592Z,18.50
2018-01-18T21:12:19.826Z,18.50
2018-01-18T21:14:48.011Z,18.50
2018-01-18T21:17:16.227Z,18.40
2018-01-18T21:19:44.464Z,18.40
2018-01-18T21:22:13.238Z,18.40
2018-01-18T21:24:41.452Z,18.30
2018-01-18T21:27:09.760Z,18.30
2018-01-18T21:29:38.027Z,18.30
2018-01-18T21:32:06.270Z,18.30
2018-01-18T21:34:35.058Z,18.30
2018-01-18T21:37:03.310Z,18.30
2018-01-18T21:39:31.635Z,18.30
2018-01-18T21:41:59.969Z,18.30
2018-01-18T21:44:28.252Z,18.20
2018-01-18T22:29:02.400Z,18.20
2018-01-18T22:31:37.080Z,18.20
2018-01-18T22:34:06.860Z,18.20
2018-01-18T22:36:35.021Z,18.20
2018-01-18T22:39:03.199Z,18.20
2018-01-18T22:41:31.489Z,18.20
2018-01-18T22:43:59.639Z,18.20
2018-01-18T22:46:27.858Z,18.20
2018-01-18T22:48:56.005Z,18.20
2018-01-18T22:51:24.165Z,18.20
2018-01-18T22:53:52.335Z,18.20
2018-01-18T22:56:20.533Z,18.10
2018-01-18T22:58:48.683Z,18.20
2018-01-18T23:01:16.866Z,18.20
2018-01-18T23:03:45.127Z,18.10
2018-01-18T23:06:13.916Z,18.20
2018-01-18T23:08:44.361Z,18.20
2018-01-18T23:11:12.535Z,18.10
2018-01-18T23:13:41.453Z,18.10
2018-01-18T23:16:09.608Z,18.10
2018-01-18T23:18:37.750Z,18.10
2018-01-18T23:21:05.951Z,18.10
2018-01-18T23:23:34.263Z,18.10
2018-01-18T23:26:02.562Z,18.10
2018-01-18T23:28:30.995Z,18.10
2018-01-18T23:30:59.213Z,18.10
2018-01-18T23:33:27.395Z,18.10
2018-01-18T23:35:55.562Z,18.10
2018-01-18T23:38:23.776Z,18.10
2018-01-18T23:40:51.955Z,18.10
2018-01-18T23:43:20.910Z,18.10
2018-01-18T23:45:49.075Z,18.10
2018-01-18T23:48:17.246Z,18.10
2018-01-18T23:50:45.450Z,18.10
2018-01-18T23:53:14.383Z,18.10
2018-01-18T23:55:42.558Z,18.10
2018-01-18T23:58:10.715Z,18.10
